(°C)
(°C)
-0°
-1°
-1°
-1°
K
K
K
K
KKD
KKD
KKD
(km/saat)
9-16
8-14
8-14
8-12
7-14
7-15
6-11
(mm)
0
0
0
0
0
0
0
(%)
0
0
0
0
0
0
0

Güneşin açısı

/ 1.3°
sun-icon
UV 1
05:47
18:34
Hilal (161°)
19:08
02:20

64.6°K 40.72°D (ULAA) için METAR

Zaman Koşullar Sıcaklık/
Çiy noktası
Rüzgar Görünürlük Hava Bulutlar Basınç Değiştir Ham
VFR 7°C / 4°C variable 2kt >10km - Broken Clouds 3500ft 1032 No Significant change ULAA 191500Z VRB01MPS 9999 BKN035CB 07/04 Q1032 R26/CLRD70 NOSIG RMK QFE773/1030
MVFR 8°C / 4°C 360º variable 300º to 090º 4kt >10km - Broken Clouds 2700ft 1032 No Significant change ULAA 191430Z 36002MPS 300V090 9999 BKN027CB 08/04 Q1032 R26/CLRD70 NOSIG RMK QFE773/1030
VFR 8°C / 4°C 310º variable 280º to 350º 4kt >10km - Broken Clouds 3600ft 1032 No Significant change ULAA 191400Z 31002MPS 280V350 9999 BKN036 08/04 Q1032 R26/CLRD70 NOSIG RMK QFE773/1030
VFR 8°C / 4°C 300º variable 260º to 340º 6kt >10km - Broken Clouds 3500ft 1032 No Significant change ULAA 191330Z 30003MPS 260V340 9999 BKN035 08/04 Q1032 R26/CLRD70 NOSIG RMK QFE773/1030
VFR 8°C / 4°C 320º variable 290º to 360º 6kt >10km - Broken Clouds 3500ft 1032 No Significant change ULAA 191300Z 32003MPS 290V360 9999 BKN035 08/04 Q1032 R26/CLRD70 NOSIG RMK QFE773/1030
VFR 9°C / 2°C 40º variable 350º to 090º 4kt >10km - Broken Clouds 3300ft 1032 No Significant change ULAA 191230Z 04002MPS 350V090 9999 BKN033 09/02 Q1032 R26/CLRD70 NOSIG RMK QFE773/1031
VFR 9°C / 1°C 30º variable 340º to 080º 6kt >10km - Broken Clouds 3800ft 1033 No Significant change ULAA 191200Z 03003MPS 340V080 9999 BKN038CB 09/01 Q1033 R26/CLRD70 NOSIG RMK QFE773/1031
MVFR 9°C / 1°C 10º variable 320º to 080º 6kt >10km - Broken Clouds 3000ft 1033 No Significant change ULAA 191130Z 01003MPS 320V080 9999 BKN030CB 09/01 Q1033 R08/CLRD70 NOSIG RMK QFE773/1031
MVFR 9°C / 1°C 10º 4kt >10km - Overcast 2900ft 1033 No Significant change ULAA 191100Z 01002MPS 9999 OVC029CB 09/01 Q1033 R08/CLRD70 NOSIG RMK QFE773/1031
MVFR 8°C / 2°C 20º variable 350º to 050º 4kt >10km - Overcast 2900ft 1033 No Significant change ULAA 191030Z 02002MPS 350V050 9999 OVC029CB 08/02 Q1033 R08/CLRD70 NOSIG RMK QFE773/1031
MVFR 8°C / 2°C 360º variable 300º to 070º 4kt >10km - Overcast 3000ft 1033 No Significant change ULAA 191000Z 36002MPS 300V070 9999 OVC030CB 08/02 Q1033 R08/CLRD70 NOSIG RMK QFE773/1031
VFR 8°C / 2°C 40º variable 360º to 090º 4kt >10km - Broken Clouds 3400ft 1033 No Significant change ULAA 190930Z 04002MPS 360V090 9999 BKN034 08/02 Q1033 R08/CLRD70 NOSIG RMK QFE773/1031
VFR 7°C / 2°C 30º variable 350º to 080º 4kt >10km - Broken Clouds 3400ft 1032 No Significant change ULAA 190900Z 03002MPS 350V080 9999 BKN034 07/02 Q1032 R08/CLRD70 NOSIG RMK QFE773/1031
VFR 7°C / 1°C 360º variable 320º to 060º 4kt >10km - Broken Clouds 3200ft 1032 No Significant change ULAA 190830Z 36002MPS 320V060 9999 BKN032CB 07/01 Q1032 R08/CLRD70 NOSIG RMK QFE773/1031
VFR 7°C / 1°C variable 2kt >10km - Broken Clouds 3100ft 1032 No Significant change ULAA 190800Z VRB01MPS 9999 BKN031CB 07/01 Q1032 R08/CLRD70 NOSIG RMK QFE773/1031
MVFR 7°C / 1°C 50º variable 350º to 100º 4kt >10km - Broken Clouds 2700ft 1032 No Significant change ULAA 190730Z 05002MPS 350V100 9999 BKN027CB 07/01 Q1032 R08/CLRD70 NOSIG RMK QFE773/1031
MVFR 7°C / 2°C 30º variable 320º to 070º 4kt >10km - Broken Clouds 3000ft 1032 No Significant change ULAA 190700Z 03002MPS 320V070 9999 BKN030CB 07/02 Q1032 R08/CLRD70 NOSIG RMK QFE773/1031
VFR 7°C / 2°C 10º variable 330º to 070º 4kt >10km - Broken Clouds 3300ft 1032 No Significant change ULAA 190630Z 01002MPS 330V070 9999 BKN033CB 07/02 Q1032 R08/CLRD70 NOSIG RMK QFE773/1031
VFR 6°C / 3°C 360º variable 320º to 040º 4kt >10km - Broken Clouds 3200ft 1032 No Significant change. Runway 08: Damp, 51-100% contamination with <1mm, friction coefficient 0.65. ULAA 190600Z 36002MPS 320V040 9999 BKN032CB 06/03 Q1032 R08/190065 NOSIG RMK QFE773/1031
VFR 5°C / 3°C 10º variable 320º to 040º 4kt >10km - Broken Clouds 3100ft 1032 No Significant change. Runway 08: Damp, 51-100% contamination with <1mm, friction coefficient 0.65. ULAA 190530Z 01002MPS 320V040 9999 BKN031CB 05/03 Q1032 R08/190065 NOSIG RMK QFE773/1031
VFR 5°C / 3°C 360º variable 320º to 030º 4kt >10km - Overcast 3300ft 1032 No Significant change. Runway 08: Damp, 51-100% contamination with <1mm, friction coefficient 0.65. ULAA 190500Z 36002MPS 320V030 9999 OVC033CB 05/03 Q1032 R08/190065 NOSIG RMK QFE773/1031
VFR 4°C / 3°C 350º 2kt >10km - Broken Clouds 3100ft 1032 No Significant change. Runway 08: Damp, 51-100% contamination with <1mm, friction coefficient 0.65. ULAA 190430Z 35001MPS 9999 BKN031CB 04/03 Q1032 R08/190065 NOSIG RMK QFE773/1030
VFR 4°C / 3°C 350º 2kt >10km - Broken Clouds 3200ft 1032 No Significant change ULAA 190400Z 35001MPS 9999 BKN032CB 04/03 Q1032 R08/CLRD70 NOSIG RMK QFE773/1030
VFR 4°C / 3°C 350º variable 310º to 020º 4kt >10km Light Showers Rain 3.00mm precipitation Vertical Visibility of 0ft. 1031 No Significant change ULAA 190330Z 35002MPS 310V020 9999 -SHRA OVC032CB 04/03 Q1031 R08/CLRD70 NOSIG RMK QFE772/1030

VFR

7°C / 4°C

[Daha fazla]
Rüzgar variable 2kt
Görünürlük >10km
Hava -
Bulutlar Broken Clouds 3500ft
Basınç 1032
Değiştir No Significant change
Ham ULAA 191500Z VRB01MPS 9999 BKN035CB 07/04 Q1032 R26/CLRD70 NOSIG RMK QFE773/1030

MVFR

8°C / 4°C

[Daha fazla]
Rüzgar 360º variable 300º to 090º 4kt
Görünürlük >10km
Hava -
Bulutlar Broken Clouds 2700ft
Basınç 1032
Değiştir No Significant change
Ham ULAA 191430Z 36002MPS 300V090 9999 BKN027CB 08/04 Q1032 R26/CLRD70 NOSIG RMK QFE773/1030

VFR

8°C / 4°C

[Daha fazla]
Rüzgar 310º variable 280º to 350º 4kt
Görünürlük >10km
Hava -
Bulutlar Broken Clouds 3600ft
Basınç 1032
Değiştir No Significant change
Ham ULAA 191400Z 31002MPS 280V350 9999 BKN036 08/04 Q1032 R26/CLRD70 NOSIG RMK QFE773/1030

VFR

8°C / 4°C

[Daha fazla]
Rüzgar 300º variable 260º to 340º 6kt
Görünürlük >10km
Hava -
Bulutlar Broken Clouds 3500ft
Basınç 1032
Değiştir No Significant change
Ham ULAA 191330Z 30003MPS 260V340 9999 BKN035 08/04 Q1032 R26/CLRD70 NOSIG RMK QFE773/1030

VFR

8°C / 4°C

[Daha fazla]
Rüzgar 320º variable 290º to 360º 6kt
Görünürlük >10km
Hava -
Bulutlar Broken Clouds 3500ft
Basınç 1032
Değiştir No Significant change
Ham ULAA 191300Z 32003MPS 290V360 9999 BKN035 08/04 Q1032 R26/CLRD70 NOSIG RMK QFE773/1030

VFR

9°C / 2°C

[Daha fazla]
Rüzgar 40º variable 350º to 090º 4kt
Görünürlük >10km
Hava -
Bulutlar Broken Clouds 3300ft
Basınç 1032
Değiştir No Significant change
Ham ULAA 191230Z 04002MPS 350V090 9999 BKN033 09/02 Q1032 R26/CLRD70 NOSIG RMK QFE773/1031

VFR

9°C / 1°C

[Daha fazla]
Rüzgar 30º variable 340º to 080º 6kt
Görünürlük >10km
Hava -
Bulutlar Broken Clouds 3800ft
Basınç 1033
Değiştir No Significant change
Ham ULAA 191200Z 03003MPS 340V080 9999 BKN038CB 09/01 Q1033 R26/CLRD70 NOSIG RMK QFE773/1031

MVFR

9°C / 1°C

[Daha fazla]
Rüzgar 10º variable 320º to 080º 6kt
Görünürlük >10km
Hava -
Bulutlar Broken Clouds 3000ft
Basınç 1033
Değiştir No Significant change
Ham ULAA 191130Z 01003MPS 320V080 9999 BKN030CB 09/01 Q1033 R08/CLRD70 NOSIG RMK QFE773/1031

MVFR

9°C / 1°C

[Daha fazla]
Rüzgar 10º 4kt
Görünürlük >10km
Hava -
Bulutlar Overcast 2900ft
Basınç 1033
Değiştir No Significant change
Ham ULAA 191100Z 01002MPS 9999 OVC029CB 09/01 Q1033 R08/CLRD70 NOSIG RMK QFE773/1031

MVFR

8°C / 2°C

[Daha fazla]
Rüzgar 20º variable 350º to 050º 4kt
Görünürlük >10km
Hava -
Bulutlar Overcast 2900ft
Basınç 1033
Değiştir No Significant change
Ham ULAA 191030Z 02002MPS 350V050 9999 OVC029CB 08/02 Q1033 R08/CLRD70 NOSIG RMK QFE773/1031

MVFR

8°C / 2°C

[Daha fazla]
Rüzgar 360º variable 300º to 070º 4kt
Görünürlük >10km
Hava -
Bulutlar Overcast 3000ft
Basınç 1033
Değiştir No Significant change
Ham ULAA 191000Z 36002MPS 300V070 9999 OVC030CB 08/02 Q1033 R08/CLRD70 NOSIG RMK QFE773/1031

VFR

8°C / 2°C

[Daha fazla]
Rüzgar 40º variable 360º to 090º 4kt
Görünürlük >10km
Hava -
Bulutlar Broken Clouds 3400ft
Basınç 1033
Değiştir No Significant change
Ham ULAA 190930Z 04002MPS 360V090 9999 BKN034 08/02 Q1033 R08/CLRD70 NOSIG RMK QFE773/1031

VFR

7°C / 2°C

[Daha fazla]
Rüzgar 30º variable 350º to 080º 4kt
Görünürlük >10km
Hava -
Bulutlar Broken Clouds 3400ft
Basınç 1032
Değiştir No Significant change
Ham ULAA 190900Z 03002MPS 350V080 9999 BKN034 07/02 Q1032 R08/CLRD70 NOSIG RMK QFE773/1031

VFR

7°C / 1°C

[Daha fazla]
Rüzgar 360º variable 320º to 060º 4kt
Görünürlük >10km
Hava -
Bulutlar Broken Clouds 3200ft
Basınç 1032
Değiştir No Significant change
Ham ULAA 190830Z 36002MPS 320V060 9999 BKN032CB 07/01 Q1032 R08/CLRD70 NOSIG RMK QFE773/1031

VFR

7°C / 1°C

[Daha fazla]
Rüzgar variable 2kt
Görünürlük >10km
Hava -
Bulutlar Broken Clouds 3100ft
Basınç 1032
Değiştir No Significant change
Ham ULAA 190800Z VRB01MPS 9999 BKN031CB 07/01 Q1032 R08/CLRD70 NOSIG RMK QFE773/1031

MVFR

7°C / 1°C

[Daha fazla]
Rüzgar 50º variable 350º to 100º 4kt
Görünürlük >10km
Hava -
Bulutlar Broken Clouds 2700ft
Basınç 1032
Değiştir No Significant change
Ham ULAA 190730Z 05002MPS 350V100 9999 BKN027CB 07/01 Q1032 R08/CLRD70 NOSIG RMK QFE773/1031

MVFR

7°C / 2°C

[Daha fazla]
Rüzgar 30º variable 320º to 070º 4kt
Görünürlük >10km
Hava -
Bulutlar Broken Clouds 3000ft
Basınç 1032
Değiştir No Significant change
Ham ULAA 190700Z 03002MPS 320V070 9999 BKN030CB 07/02 Q1032 R08/CLRD70 NOSIG RMK QFE773/1031

VFR

7°C / 2°C

[Daha fazla]
Rüzgar 10º variable 330º to 070º 4kt
Görünürlük >10km
Hava -
Bulutlar Broken Clouds 3300ft
Basınç 1032
Değiştir No Significant change
Ham ULAA 190630Z 01002MPS 330V070 9999 BKN033CB 07/02 Q1032 R08/CLRD70 NOSIG RMK QFE773/1031

VFR

6°C / 3°C

[Daha fazla]
Rüzgar 360º variable 320º to 040º 4kt
Görünürlük >10km
Hava -
Bulutlar Broken Clouds 3200ft
Basınç 1032
Değiştir No Significant change. Runway 08: Damp, 51-100% contamination with <1mm, friction coefficient 0.65.
Ham ULAA 190600Z 36002MPS 320V040 9999 BKN032CB 06/03 Q1032 R08/190065 NOSIG RMK QFE773/1031

VFR

5°C / 3°C

[Daha fazla]
Rüzgar 10º variable 320º to 040º 4kt
Görünürlük >10km
Hava -
Bulutlar Broken Clouds 3100ft
Basınç 1032
Değiştir No Significant change. Runway 08: Damp, 51-100% contamination with <1mm, friction coefficient 0.65.
Ham ULAA 190530Z 01002MPS 320V040 9999 BKN031CB 05/03 Q1032 R08/190065 NOSIG RMK QFE773/1031

VFR

5°C / 3°C

[Daha fazla]
Rüzgar 360º variable 320º to 030º 4kt
Görünürlük >10km
Hava -
Bulutlar Overcast 3300ft
Basınç 1032
Değiştir No Significant change. Runway 08: Damp, 51-100% contamination with <1mm, friction coefficient 0.65.
Ham ULAA 190500Z 36002MPS 320V030 9999 OVC033CB 05/03 Q1032 R08/190065 NOSIG RMK QFE773/1031

VFR

4°C / 3°C

[Daha fazla]
Rüzgar 350º 2kt
Görünürlük >10km
Hava -
Bulutlar Broken Clouds 3100ft
Basınç 1032
Değiştir No Significant change. Runway 08: Damp, 51-100% contamination with <1mm, friction coefficient 0.65.
Ham ULAA 190430Z 35001MPS 9999 BKN031CB 04/03 Q1032 R08/190065 NOSIG RMK QFE773/1030

VFR

4°C / 3°C

[Daha fazla]
Rüzgar 350º 2kt
Görünürlük >10km
Hava -
Bulutlar Broken Clouds 3200ft
Basınç 1032
Değiştir No Significant change
Ham ULAA 190400Z 35001MPS 9999 BKN032CB 04/03 Q1032 R08/CLRD70 NOSIG RMK QFE773/1030

VFR

4°C / 3°C

[Daha fazla]
Rüzgar 350º variable 310º to 020º 4kt
Görünürlük >10km
Hava Light Showers Rain 3.00mm precipitation
Bulutlar Vertical Visibility of 0ft.
Basınç 1031
Değiştir No Significant change
Ham ULAA 190330Z 35002MPS 310V020 9999 -SHRA OVC032CB 04/03 Q1031 R08/CLRD70 NOSIG RMK QFE772/1030

64.6°K 40.72°D (ULAA) için TAF

From till


From till Wind 20º 6kt. Visibility 10km or more. Broken Clouds 1700ft.
Temporarly from till Wind 320º 6kt. Visibility 6000m. Light Showers Rain . Few Clouds 700ft. Broken Clouds 1600ft.
Temporarly from till Wind variable 2kt. Visibility 498.895m. Fog . Few Clouds 400ft.
Temporarly from till Visibility 6000m. shallow Fog . Few Clouds 500ft.

Ham: TAF ULAA 191400Z 1915/2015 02003MPS 9999 BKN017 TEMPO 1915/1920 32003MPS 6000 -SHRA FEW007 BKN016CB TEMPO 1920/2004 VRB01MPS 0500 FG FEW004 TEMPO 2004/2008 6000 MIFG FEW005

64.6°K 40.72°D için şu anki uydu ve yağmur görüntüleri

Konum işaretleyici 64.6°K 40.72°D üzerine yerleştirilir. [Daha fazla]

Gerçek zamanlı uydu görüntüsü gündüz süresince görülür ışığı gece süresince kızılötesi ışınım ile birleştirir. Gece kızılötesi ışınım sıcaklık farklarını algılayabildiğinden dolayı görüntü karanlık değildir. Ancak düşük bulutları ve sisi yer sıcaklığından ayırmak zordur ve bu nedenle gece boyunca neredeyse görünmez olabilirler. Avrupa için Meteosat uydu görüntüleri gerçek zamanlı olarak her 5 dakikada bir güncellenir. GOES-16/GOES-17 (Kuzey ve Güney Amerika) ve Himawari (Asya) görüntüleri her 10 dakikada bir güncellenir.

Copyright 2021 EUMETSAT / meteoblue. / Copyright 2021 meteoblue

64.6°K 40.72°D için radar ve yağış nowcast

çiseleyen yağmur
Hafif
Orta
Ağır
Çok ağır
Selamlamak

Konum işaretleyicisi 64.6°K 40.72°D üzerine yerleştirilir. Bu animasyon son saat içerisindeki yağış radarını ve 1h tahminini gösterir. Radar için çiseleyen yağmur veya hafif kar yağışı görünmez olabilir. Yağış yoğunluğu açık maviden turuncuya değişen renk kodludur.